sensor_id;sensor_type;location;lat;lon;timestamp;temperature;humidity
23371;DHT22;11858;51.056;3.712;2024-03-02T00:01:34;6.10;99.90
23371;DHT22;11858;51.056;3.712;2024-03-02T00:03:59;6.20;99.90
23371;DHT22;11858;51.056;3.712;2024-03-02T00:06:25;6.20;99.90
23371;DHT22;11858;51.056;3.712;2024-03-02T00:08:51;6.20;99.90
23371;DHT22;11858;51.056;3.712;2024-03-02T00:11:18;6.20;99.90
23371;DHT22;11858;51.056;3.712;2024-03-02T00:13:45;6.30;99.90
23371;DHT22;11858;51.056;3.712;2024-03-02T00:16:11;6.30;99.90
23371;DHT22;11858;51.056;3.712;2024-03-02T00:18:37;6.40;99.90
23371;DHT22;11858;51.056;3.712;2024-03-02T00:21:03;6.30;99.90
23371;DHT22;11858;51.056;3.712;2024-03-02T00:23:31;6.30;99.90
23371;DHT22;11858;51.056;3.712;2024-03-02T00:25:58;6.40;99.90
23371;DHT22;11858;51.056;3.712;2024-03-02T00:28:35;6.30;99.90
23371;DHT22;11858;51.056;3.712;2024-03-02T00:31:05;6.40;99.90
23371;DHT22;11858;51.056;3.712;2024-03-02T00:33:41;6.40;99.90
23371;DHT22;11858;51.056;3.712;2024-03-02T00:36:08;6.40;99.90
23371;DHT22;11858;51.056;3.712;2024-03-02T00:38:39;6.30;99.90
23371;DHT22;11858;51.056;3.712;2024-03-02T00:41:08;6.30;99.90
23371;DHT22;11858;51.056;3.712;2024-03-02T00:43:45;6.40;99.90
23371;DHT22;11858;51.056;3.712;2024-03-02T00:46:12;6.40;99.90
23371;DHT22;11858;51.056;3.712;2024-03-02T00:48:41;6.40;99.90
23371;DHT22;11858;51.056;3.712;2024-03-02T00:51:10;6.30;99.90
23371;DHT22;11858;51.056;3.712;2024-03-02T00:53:36;6.40;99.90
23371;DHT22;11858;51.056;3.712;2024-03-02T00:56:02;6.40;99.90
23371;DHT22;11858;51.056;3.712;2024-03-02T00:58:28;6.40;99.90
23371;DHT22;11858;51.056;3.712;2024-03-02T01:00:54;6.50;99.90
23371;DHT22;11858;51.056;3.712;2024-03-02T01:03:21;6.50;99.90
23371;DHT22;11858;51.056;3.712;2024-03-02T01:05:47;6.50;99.90
23371;DHT22;11858;51.056;3.712;2024-03-02T01:08:12;6.40;99.90
23371;DHT22;11858;51.056;3.712;2024-03-02T01:10:38;6.30;99.90
23371;DHT22;11858;51.056;3.712;2024-03-02T01:13:04;6.30;99.90
23371;DHT22;11858;51.056;3.712;2024-03-02T01:15:30;6.40;99.90
23371;DHT22;11858;51.056;3.712;2024-03-02T01:17:56;6.30;99.90
23371;DHT22;11858;51.056;3.712;2024-03-02T01:20:22;6.30;99.90
23371;DHT22;11858;51.056;3.712;2024-03-02T01:22:48;6.30;99.90
23371;DHT22;11858;51.056;3.712;2024-03-02T01:25:13;6.30;99.90
23371;DHT22;11858;51.056;3.712;2024-03-02T01:27:39;6.20;99.90
23371;DHT22;11858;51.056;3.712;2024-03-02T01:30:06;6.30;99.90
23371;DHT22;11858;51.056;3.712;2024-03-02T01:32:32;6.20;99.90
23371;DHT22;11858;51.056;3.712;2024-03-02T01:34:57;6.20;99.90
23371;DHT22;11858;51.056;3.712;2024-03-02T01:37:23;6.20;99.90
23371;DHT22;11858;51.056;3.712;2024-03-02T01:39:49;6.20;99.90
23371;DHT22;11858;51.056;3.712;2024-03-02T01:42:15;6.10;99.90
23371;DHT22;11858;51.056;3.712;2024-03-02T01:44:41;6.20;99.90
23371;DHT22;11858;51.056;3.712;2024-03-02T01:47:07;6.20;99.90
23371;DHT22;11858;51.056;3.712;2024-03-02T01:49:32;6.30;99.90
23371;DHT22;11858;51.056;3.712;2024-03-02T01:51:59;6.30;99.90
23371;DHT22;11858;51.056;3.712;2024-03-02T01:54:25;6.30;99.90
23371;DHT22;11858;51.056;3.712;2024-03-02T01:56:51;6.30;99.90
23371;DHT22;11858;51.056;3.712;2024-03-02T01:59:17;6.20;99.90
23371;DHT22;11858;51.056;3.712;2024-03-02T02:01:43;6.20;99.90
23371;DHT22;11858;51.056;3.712;2024-03-02T02:04:09;6.30;99.90
23371;DHT22;11858;51.056;3.712;2024-03-02T02:06:35;6.10;99.90
23371;DHT22;11858;51.056;3.712;2024-03-02T02:09:01;6.20;99.90
23371;DHT22;11858;51.056;3.712;2024-03-02T02:11:26;6.20;99.90
23371;DHT22;11858;51.056;3.712;2024-03-02T02:13:52;6.10;99.90
23371;DHT22;11858;51.056;3.712;2024-03-02T02:16:21;6.20;99.90
23371;DHT22;11858;51.056;3.712;2024-03-02T02:18:47;6.20;99.90
23371;DHT22;11858;51.056;3.712;2024-03-02T02:21:13;6.20;99.90
23371;DHT22;11858;51.056;3.712;2024-03-02T02:23:38;6.20;99.90
23371;DHT22;11858;51.056;3.712;2024-03-02T02:26:04;6.10;99.90
23371;DHT22;11858;51.056;3.712;2024-03-02T02:28:30;6.00;99.90
23371;DHT22;11858;51.056;3.712;2024-03-02T02:30:56;6.00;99.90
23371;DHT22;11858;51.056;3.712;2024-03-02T02:33:22;6.00;99.90
23371;DHT22;11858;51.056;3.712;2024-03-02T02:35:48;6.10;99.90
23371;DHT22;11858;51.056;3.712;2024-03-02T02:38:14;6.10;99.90
23371;DHT22;11858;51.056;3.712;2024-03-02T02:40:39;6.00;99.90
23371;DHT22;11858;51.056;3.712;2024-03-02T02:43:05;6.10;99.90
23371;DHT22;11858;51.056;3.712;2024-03-02T02:45:32;6.10;99.90
23371;DHT22;11858;51.056;3.712;2024-03-02T02:47:58;6.10;99.90
23371;DHT22;11858;51.056;3.712;2024-03-02T02:50:23;6.20;99.90
23371;DHT22;11858;51.056;3.712;2024-03-02T02:52:49;6.20;99.90
23371;DHT22;11858;51.056;3.712;2024-03-02T02:55:16;6.20;99.90
23371;DHT22;11858;51.056;3.712;2024-03-02T02:57:42;6.20;99.90
23371;DHT22;11858;51.056;3.712;2024-03-02T03:00:13;6.10;99.90
23371;DHT22;11858;51.056;3.712;2024-03-02T03:02:45;6.20;99.90
23371;DHT22;11858;51.056;3.712;2024-03-02T03:05:13;6.30;99.90
23371;DHT22;11858;51.056;3.712;2024-03-02T03:07:40;6.30;99.90
23371;DHT22;11858;51.056;3.712;2024-03-02T03:10:07;6.30;99.90
23371;DHT22;11858;51.056;3.712;2024-03-02T03:12:33;6.30;99.90
23371;DHT22;11858;51.056;3.712;2024-03-02T03:14:59;6.20;99.90
23371;DHT22;11858;51.056;3.712;2024-03-02T03:17:25;6.10;99.90
23371;DHT22;11858;51.056;3.712;2024-03-02T03:19:51;6.10;99.90
23371;DHT22;11858;51.056;3.712;2024-03-02T03:22:17;6.10;99.90
23371;DHT22;11858;51.056;3.712;2024-03-02T03:24:43;6.20;99.90
23371;DHT22;11858;51.056;3.712;2024-03-02T03:27:09;6.00;99.90
23371;DHT22;11858;51.056;3.712;2024-03-02T03:29:37;6.10;99.90
23371;DHT22;11858;51.056;3.712;2024-03-02T03:32:03;6.10;99.90
23371;DHT22;11858;51.056;3.712;2024-03-02T03:34:32;6.10;99.90
23371;DHT22;11858;51.056;3.712;2024-03-02T03:36:58;6.10;99.90
23371;DHT22;11858;51.056;3.712;2024-03-02T03:39:24;6.20;99.90
23371;DHT22;11858;51.056;3.712;2024-03-02T03:41:50;6.10;99.90
23371;DHT22;11858;51.056;3.712;2024-03-02T03:44:16;6.00;99.90
23371;DHT22;11858;51.056;3.712;2024-03-02T03:46:42;6.00;99.90
23371;DHT22;11858;51.056;3.712;2024-03-02T03:49:08;6.00;99.90
23371;DHT22;11858;51.056;3.712;2024-03-02T03:51:34;5.90;99.90
23371;DHT22;11858;51.056;3.712;2024-03-02T03:54:01;5.90;99.90
23371;DHT22;11858;51.056;3.712;2024-03-02T03:56:27;5.90;99.90
23371;DHT22;11858;51.056;3.712;2024-03-02T03:58:53;5.90;99.90
23371;DHT22;11858;51.056;3.712;2024-03-02T04:01:18;6.00;99.90
23371;DHT22;11858;51.056;3.712;2024-03-02T04:03:44;6.10;99.90
23371;DHT22;11858;51.056;3.712;2024-03-02T04:06:10;6.00;99.90
23371;DHT22;11858;51.056;3.712;2024-03-02T04:08:36;6.10;99.90
23371;DHT22;11858;51.056;3.712;2024-03-02T04:11:02;6.00;99.90
23371;DHT22;11858;51.056;3.712;2024-03-02T04:13:28;6.10;99.90
23371;DHT22;11858;51.056;3.712;2024-03-02T04:15:54;6.10;99.90
23371;DHT22;11858;51.056;3.712;2024-03-02T04:18:19;6.00;99.90
23371;DHT22;11858;51.056;3.712;2024-03-02T04:20:45;6.00;99.90
23371;DHT22;11858;51.056;3.712;2024-03-02T04:23:11;6.00;99.90
23371;DHT22;11858;51.056;3.712;2024-03-02T04:25:37;6.20;99.90
23371;DHT22;11858;51.056;3.712;2024-03-02T04:28:03;6.10;99.90
23371;DHT22;11858;51.056;3.712;2024-03-02T04:30:28;6.10;99.90
23371;DHT22;11858;51.056;3.712;2024-03-02T04:32:54;6.10;99.90
23371;DHT22;11858;51.056;3.712;2024-03-02T04:35:20;6.10;99.90
23371;DHT22;11858;51.056;3.712;2024-03-02T04:37:46;6.20;99.90
23371;DHT22;11858;51.056;3.712;2024-03-02T04:40:12;6.30;99.90
23371;DHT22;11858;51.056;3.712;2024-03-02T04:42:38;6.20;99.90
23371;DHT22;11858;51.056;3.712;2024-03-02T04:45:04;6.40;99.90
23371;DHT22;11858;51.056;3.712;2024-03-02T04:47:30;6.30;99.90
23371;DHT22;11858;51.056;3.712;2024-03-02T04:49:55;6.20;99.90
23371;DHT22;11858;51.056;3.712;2024-03-02T04:52:21;6.10;99.90
23371;DHT22;11858;51.056;3.712;2024-03-02T04:54:47;6.20;99.90
23371;DHT22;11858;51.056;3.712;2024-03-02T04:57:31;6.10;99.90
23371;DHT22;11858;51.056;3.712;2024-03-02T04:59:56;6.20;99.90
23371;DHT22;11858;51.056;3.712;2024-03-02T05:02:22;6.20;99.90
23371;DHT22;11858;51.056;3.712;2024-03-02T05:04:48;6.30;99.90
23371;DHT22;11858;51.056;3.712;2024-03-02T05:07:14;6.20;99.90
23371;DHT22;11858;51.056;3.712;2024-03-02T05:09:40;6.10;99.90
23371;DHT22;11858;51.056;3.712;2024-03-02T05:12:06;6.10;99.90
23371;DHT22;11858;51.056;3.712;2024-03-02T05:14:34;6.00;99.90
23371;DHT22;11858;51.056;3.712;2024-03-02T05:17:00;5.90;99.90
23371;DHT22;11858;51.056;3.712;2024-03-02T05:19:26;5.90;99.90
23371;DHT22;11858;51.056;3.712;2024-03-02T05:21:51;5.90;99.90
23371;DHT22;11858;51.056;3.712;2024-03-02T05:24:17;6.00;99.90
23371;DHT22;11858;51.056;3.712;2024-03-02T05:26:43;6.00;99.90
23371;DHT22;11858;51.056;3.712;2024-03-02T05:29:09;6.00;99.90
23371;DHT22;11858;51.056;3.712;2024-03-02T05:31:34;5.90;99.90
23371;DHT22;11858;51.056;3.712;2024-03-02T05:34:00;5.90;99.90
23371;DHT22;11858;51.056;3.712;2024-03-02T05:36:26;5.80;99.90
23371;DHT22;11858;51.056;3.712;2024-03-02T05:38:52;5.80;99.90
23371;DHT22;11858;51.056;3.712;2024-03-02T05:41:18;5.80;99.90
23371;DHT22;11858;51.056;3.712;2024-03-02T05:43:43;5.70;99.90
23371;DHT22;11858;51.056;3.712;2024-03-02T05:46:09;5.70;99.90
23371;DHT22;11858;51.056;3.712;2024-03-02T05:48:35;5.80;99.90
23371;DHT22;11858;51.056;3.712;2024-03-02T05:51:01;5.90;99.90
23371;DHT22;11858;51.056;3.712;2024-03-02T05:53:27;5.80;99.90
23371;DHT22;11858;51.056;3.712;2024-03-02T05:55:52;5.70;99.90
23371;DHT22;11858;51.056;3.712;2024-03-02T05:58:21;5.80;99.90
23371;DHT22;11858;51.056;3.712;2024-03-02T06:00:53;5.70;99.90
23371;DHT22;11858;51.056;3.712;2024-03-02T06:03:20;5.60;99.90
23371;DHT22;11858;51.056;3.712;2024-03-02T06:05:45;5.60;99.90
23371;DHT22;11858;51.056;3.712;2024-03-02T06:08:14;5.60;99.90
23371;DHT22;11858;51.056;3.712;2024-03-02T06:10:40;5.60;99.90
23371;DHT22;11858;51.056;3.712;2024-03-02T06:13:06;5.50;99.90
23371;DHT22;11858;51.056;3.712;2024-03-02T06:15:32;5.50;99.90
23371;DHT22;11858;51.056;3.712;2024-03-02T06:17:58;5.50;99.90
23371;DHT22;11858;51.056;3.712;2024-03-02T06:20:24;5.40;99.90
23371;DHT22;11858;51.056;3.712;2024-03-02T06:22:52;5.50;99.90
23371;DHT22;11858;51.056;3.712;2024-03-02T06:25:17;5.50;99.90
23371;DHT22;11858;51.056;3.712;2024-03-02T06:27:43;5.50;99.90
23371;DHT22;11858;51.056;3.712;2024-03-02T06:30:09;5.50;99.90
23371;DHT22;11858;51.056;3.712;2024-03-02T06:32:35;5.50;99.90
23371;DHT22;11858;51.056;3.712;2024-03-02T06:35:01;5.40;99.90
23371;DHT22;11858;51.056;3.712;2024-03-02T06:37:27;5.50;99.90
23371;DHT22;11858;51.056;3.712;2024-03-02T06:39:52;5.50;99.90
23371;DHT22;11858;51.056;3.712;2024-03-02T06:42:18;5.70;99.90
23371;DHT22;11858;51.056;3.712;2024-03-02T06:44:44;5.60;99.90
23371;DHT22;11858;51.056;3.712;2024-03-02T06:47:09;5.60;99.90
23371;DHT22;11858;51.056;3.712;2024-03-02T06:49:35;5.50;99.90
23371;DHT22;11858;51.056;3.712;2024-03-02T06:52:01;5.60;99.90
23371;DHT22;11858;51.056;3.712;2024-03-02T06:54:26;5.60;99.90
23371;DHT22;11858;51.056;3.712;2024-03-02T06:56:53;5.70;99.90
23371;DHT22;11858;51.056;3.712;2024-03-02T06:59:18;5.70;99.90
23371;DHT22;11858;51.056;3.712;2024-03-02T07:01:44;5.70;99.90
23371;DHT22;11858;51.056;3.712;2024-03-02T07:04:10;5.80;99.90
23371;DHT22;11858;51.056;3.712;2024-03-02T07:06:35;5.80;99.90
23371;DHT22;11858;51.056;3.712;2024-03-02T07:09:01;5.80;99.90
23371;DHT22;11858;51.056;3.712;2024-03-02T07:11:27;5.90;99.90
23371;DHT22;11858;51.056;3.712;2024-03-02T07:13:53;5.90;99.90
23371;DHT22;11858;51.056;3.712;2024-03-02T07:16:19;5.90;99.90
23371;DHT22;11858;51.056;3.712;2024-03-02T07:18:56;6.00;99.90
23371;DHT22;11858;51.056;3.712;2024-03-02T07:21:22;6.10;99.90
23371;DHT22;11858;51.056;3.712;2024-03-02T07:23:48;6.10;99.90
23371;DHT22;11858;51.056;3.712;2024-03-02T07:26:14;6.20;99.90
23371;DHT22;11858;51.056;3.712;2024-03-02T07:28:47;6.20;99.90
23371;DHT22;11858;51.056;3.712;2024-03-02T07:31:15;6.30;99.90
23371;DHT22;11858;51.056;3.712;2024-03-02T07:33:41;6.50;99.90
23371;DHT22;11858;51.056;3.712;2024-03-02T07:36:09;6.40;99.90
23371;DHT22;11858;51.056;3.712;2024-03-02T07:38:34;6.50;99.90
23371;DHT22;11858;51.056;3.712;2024-03-02T07:41:01;6.70;99.90
23371;DHT22;11858;51.056;3.712;2024-03-02T07:43:27;6.70;99.90
23371;DHT22;11858;51.056;3.712;2024-03-02T07:45:52;6.80;99.90
23371;DHT22;11858;51.056;3.712;2024-03-02T07:48:18;6.90;99.90
23371;DHT22;11858;51.056;3.712;2024-03-02T07:50:44;6.90;99.90
23371;DHT22;11858;51.056;3.712;2024-03-02T07:53:10;6.90;99.90
23371;DHT22;11858;51.056;3.712;2024-03-02T07:55:36;7.00;99.90
23371;DHT22;11858;51.056;3.712;2024-03-02T07:58:02;7.60;99.90
23371;DHT22;11858;51.056;3.712;2024-03-02T08:00:28;8.70;99.90
23371;DHT22;11858;51.056;3.712;2024-03-02T08:02:54;9.80;99.90
23371;DHT22;11858;51.056;3.712;2024-03-02T08:05:21;10.60;99.90
23371;DHT22;11858;51.056;3.712;2024-03-02T08:07:47;11.30;99.90
23371;DHT22;11858;51.056;3.712;2024-03-02T08:10:13;11.60;99.90
23371;DHT22;11858;51.056;3.712;2024-03-02T08:12:39;12.30;99.90
23371;DHT22;11858;51.056;3.712;2024-03-02T08:15:05;12.50;99.90
23371;DHT22;11858;51.056;3.712;2024-03-02T08:17:31;12.50;99.90
23371;DHT22;11858;51.056;3.712;2024-03-02T08:19:57;12.70;99.90
23371;DHT22;11858;51.056;3.712;2024-03-02T08:22:24;12.40;99.90
23371;DHT22;11858;51.056;3.712;2024-03-02T08:24:52;12.80;99.90
23371;DHT22;11858;51.056;3.712;2024-03-02T08:27:18;13.60;99.90
23371;DHT22;11858;51.056;3.712;2024-03-02T08:29:44;14.00;99.90
23371;DHT22;11858;51.056;3.712;2024-03-02T08:32:09;13.70;99.90
23371;DHT22;11858;51.056;3.712;2024-03-02T08:34:35;13.80;99.90
23371;DHT22;11858;51.056;3.712;2024-03-02T08:37:02;13.70;99.90
23371;DHT22;11858;51.056;3.712;2024-03-02T08:39:28;14.10;99.90
23371;DHT22;11858;51.056;3.712;2024-03-02T08:41:54;14.70;99.90
23371;DHT22;11858;51.056;3.712;2024-03-02T08:44:20;14.00;99.90
23371;DHT22;11858;51.056;3.712;2024-03-02T08:46:46;13.80;99.90
23371;DHT22;11858;51.056;3.712;2024-03-02T08:49:12;13.90;99.90
23371;DHT22;11858;51.056;3.712;2024-03-02T08:51:38;14.40;99.90
23371;DHT22;11858;51.056;3.712;2024-03-02T08:54:04;13.70;99.90
23371;DHT22;11858;51.056;3.712;2024-03-02T08:56:31;12.90;99.90
23371;DHT22;11858;51.056;3.712;2024-03-02T08:58:57;11.60;99.90
23371;DHT22;11858;51.056;3.712;2024-03-02T09:01:23;11.10;99.90
23371;DHT22;11858;51.056;3.712;2024-03-02T09:03:49;10.70;99.90
23371;DHT22;11858;51.056;3.712;2024-03-02T09:06:15;10.60;99.90
23371;DHT22;11858;51.056;3.712;2024-03-02T09:08:45;10.60;99.90
23371;DHT22;11858;51.056;3.712;2024-03-02T09:11:11;10.80;99.90
23371;DHT22;11858;51.056;3.712;2024-03-02T09:13:38;11.40;99.90
23371;DHT22;11858;51.056;3.712;2024-03-02T09:16:04;11.60;99.90
23371;DHT22;11858;51.056;3.712;2024-03-02T09:18:31;12.20;99.90
23371;DHT22;11858;51.056;3.712;2024-03-02T09:20:56;12.30;99.90
23371;DHT22;11858;51.056;3.712;2024-03-02T09:23:22;12.50;99.90
23371;DHT22;11858;51.056;3.712;2024-03-02T09:25:48;12.00;99.90
23371;DHT22;11858;51.056;3.712;2024-03-02T09:28:15;11.80;99.90
23371;DHT22;11858;51.056;3.712;2024-03-02T09:30:41;11.30;99.90
23371;DHT22;11858;51.056;3.712;2024-03-02T09:33:07;10.70;99.90
23371;DHT22;11858;51.056;3.712;2024-03-02T09:35:33;10.70;99.90
23371;DHT22;11858;51.056;3.712;2024-03-02T09:37:58;11.20;99.90
23371;DHT22;11858;51.056;3.712;2024-03-02T09:40:24;12.60;99.90
23371;DHT22;11858;51.056;3.712;2024-03-02T09:42:51;13.90;99.90
23371;DHT22;11858;51.056;3.712;2024-03-02T09:45:23;14.70;99.90
23371;DHT22;11858;51.056;3.712;2024-03-02T09:47:49;15.50;99.90
23371;DHT22;11858;51.056;3.712;2024-03-02T09:50:15;15.40;99.90
23371;DHT22;11858;51.056;3.712;2024-03-02T09:52:42;15.40;99.90
23371;DHT22;11858;51.056;3.712;2024-03-02T09:55:09;15.00;99.90
23371;DHT22;11858;51.056;3.712;2024-03-02T09:57:35;14.60;99.90
23371;DHT22;11858;51.056;3.712;2024-03-02T10:00:01;14.90;99.90
23371;DHT22;11858;51.056;3.712;2024-03-02T10:02:27;15.50;99.90
23371;DHT22;11858;51.056;3.712;2024-03-02T10:04:53;15.40;99.90
23371;DHT22;11858;51.056;3.712;2024-03-02T10:07:19;14.50;99.90
23371;DHT22;11858;51.056;3.712;2024-03-02T10:09:49;14.00;99.90
23371;DHT22;11858;51.056;3.712;2024-03-02T10:12:17;13.80;99.90
23371;DHT22;11858;51.056;3.712;2024-03-02T10:14:43;13.40;99.90
23371;DHT22;11858;51.056;3.712;2024-03-02T10:17:13;13.10;99.90
23371;DHT22;11858;51.056;3.712;2024-03-02T10:19:39;13.40;99.90
23371;DHT22;11858;51.056;3.712;2024-03-02T10:22:06;13.20;99.90
23371;DHT22;11858;51.056;3.712;2024-03-02T10:24:43;12.90;99.90
23371;DHT22;11858;51.056;3.712;2024-03-02T10:27:38;13.10;99.90
23371;DHT22;11858;51.056;3.712;2024-03-02T10:30:04;14.00;99.90
23371;DHT22;11858;51.056;3.712;2024-03-02T10:32:31;14.10;99.90
23371;DHT22;11858;51.056;3.712;2024-03-02T10:34:58;13.90;99.90
23371;DHT22;11858;51.056;3.712;2024-03-02T10:37:25;13.90;99.90
23371;DHT22;11858;51.056;3.712;2024-03-02T10:39:52;14.00;99.90
23371;DHT22;11858;51.056;3.712;2024-03-02T10:42:19;13.80;99.90
23371;DHT22;11858;51.056;3.712;2024-03-02T10:44:45;13.50;99.90
23371;DHT22;11858;51.056;3.712;2024-03-02T10:47:12;13.10;99.90
23371;DHT22;11858;51.056;3.712;2024-03-02T10:49:42;12.70;99.90
23371;DHT22;11858;51.056;3.712;2024-03-02T10:52:09;12.50;99.90
23371;DHT22;11858;51.056;3.712;2024-03-02T10:54:34;12.10;99.90
23371;DHT22;11858;51.056;3.712;2024-03-02T10:57:07;12.10;99.90
23371;DHT22;11858;51.056;3.712;2024-03-02T10:59:36;12.20;99.90
23371;DHT22;11858;51.056;3.712;2024-03-02T11:02:04;12.20;99.90
23371;DHT22;11858;51.056;3.712;2024-03-02T11:04:32;13.10;99.90
23371;DHT22;11858;51.056;3.712;2024-03-02T11:07:09;14.00;99.90
23371;DHT22;11858;51.056;3.712;2024-03-02T11:09:40;14.80;99.90
23371;DHT22;11858;51.056;3.712;2024-03-02T11:12:13;15.10;99.90
23371;DHT22;11858;51.056;3.712;2024-03-02T11:14:42;15.10;99.90
23371;DHT22;11858;51.056;3.712;2024-03-02T11:17:13;15.00;99.90
23371;DHT22;11858;51.056;3.712;2024-03-02T11:19:41;14.70;99.90
23371;DHT22;11858;51.056;3.712;2024-03-02T11:22:08;14.60;99.90
23371;DHT22;11858;51.056;3.712;2024-03-02T11:24:34;14.40;99.90
23371;DHT22;11858;51.056;3.712;2024-03-02T11:27:04;14.70;99.90
23371;DHT22;11858;51.056;3.712;2024-03-02T11:32:21;14.50;99.90
23371;DHT22;11858;51.056;3.712;2024-03-02T11:34:50;14.10;99.90
23371;DHT22;11858;51.056;3.712;2024-03-02T11:37:17;13.40;99.90
23371;DHT22;11858;51.056;3.712;2024-03-02T11:39:45;13.20;99.90
23371;DHT22;11858;51.056;3.712;2024-03-02T11:42:11;13.20;99.90
23371;DHT22;11858;51.056;3.712;2024-03-02T11:44:39;13.50;99.90
23371;DHT22;11858;51.056;3.712;2024-03-02T11:47:08;13.50;99.90
23371;DHT22;11858;51.056;3.712;2024-03-02T11:49:52;13.50;99.90
23371;DHT22;11858;51.056;3.712;2024-03-02T11:52:18;13.20;99.90
23371;DHT22;11858;51.056;3.712;2024-03-02T11:54:46;13.00;99.90
23371;DHT22;11858;51.056;3.712;2024-03-02T11:57:16;12.80;99.90
23371;DHT22;11858;51.056;3.712;2024-03-02T11:59:42;12.60;99.90
23371;DHT22;11858;51.056;3.712;2024-03-02T12:02:15;12.70;99.90
23371;DHT22;11858;51.056;3.712;2024-03-02T12:04:42;12.40;99.90
23371;DHT22;11858;51.056;3.712;2024-03-02T12:07:09;12.10;99.90
23371;DHT22;11858;51.056;3.712;2024-03-02T12:09:35;12.00;99.90
23371;DHT22;11858;51.056;3.712;2024-03-02T12:12:09;12.00;99.90
23371;DHT22;11858;51.056;3.712;2024-03-02T12:14:36;12.00;99.90
23371;DHT22;11858;51.056;3.712;2024-03-02T12:17:03;11.60;99.90
23371;DHT22;11858;51.056;3.712;2024-03-02T12:19:32;11.60;99.90
23371;DHT22;11858;51.056;3.712;2024-03-02T12:21:59;11.70;99.90
23371;DHT22;11858;51.056;3.712;2024-03-02T12:24:27;11.60;99.90
23371;DHT22;11858;51.056;3.712;2024-03-02T12:26:54;11.40;99.90
23371;DHT22;11858;51.056;3.712;2024-03-02T12:29:20;11.30;99.90
23371;DHT22;11858;51.056;3.712;2024-03-02T12:31:49;11.20;99.90
23371;DHT22;11858;51.056;3.712;2024-03-02T12:34:17;11.40;99.90
23371;DHT22;11858;51.056;3.712;2024-03-02T12:36:43;11.30;99.90
23371;DHT22;11858;51.056;3.712;2024-03-02T12:39:13;11.20;99.90
23371;DHT22;11858;51.056;3.712;2024-03-02T12:41:39;11.30;99.90
23371;DHT22;11858;51.056;3.712;2024-03-02T12:44:06;11.40;99.90
23371;DHT22;11858;51.056;3.712;2024-03-02T12:46:32;11.40;99.90
23371;DHT22;11858;51.056;3.712;2024-03-02T12:49:08;11.40;99.90
23371;DHT22;11858;51.056;3.712;2024-03-02T12:51:35;11.10;99.90
23371;DHT22;11858;51.056;3.712;2024-03-02T12:54:01;11.00;99.90
23371;DHT22;11858;51.056;3.712;2024-03-02T12:56:29;11.00;99.90
23371;DHT22;11858;51.056;3.712;2024-03-02T12:58:56;11.00;99.90
23371;DHT22;11858;51.056;3.712;2024-03-02T13:01:22;10.90;99.90
23371;DHT22;11858;51.056;3.712;2024-03-02T13:03:51;10.70;99.90
23371;DHT22;11858;51.056;3.712;2024-03-02T13:06:17;10.60;99.90
23371;DHT22;11858;51.056;3.712;2024-03-02T13:08:45;10.50;99.90
23371;DHT22;11858;51.056;3.712;2024-03-02T13:11:11;10.30;99.90
23371;DHT22;11858;51.056;3.712;2024-03-02T13:13:39;10.20;99.90
23371;DHT22;11858;51.056;3.712;2024-03-02T13:16:14;10.30;99.90
23371;DHT22;11858;51.056;3.712;2024-03-02T13:18:41;10.40;99.90
23371;DHT22;11858;51.056;3.712;2024-03-02T13:21:08;10.50;99.90
23371;DHT22;11858;51.056;3.712;2024-03-02T13:23:34;10.40;99.90
23371;DHT22;11858;51.056;3.712;2024-03-02T13:26:00;10.50;99.90
23371;DHT22;11858;51.056;3.712;2024-03-02T13:28:26;10.50;99.90
23371;DHT22;11858;51.056;3.712;2024-03-02T13:30:52;10.50;99.90
23371;DHT22;11858;51.056;3.712;2024-03-02T13:33:18;10.60;99.90
23371;DHT22;11858;51.056;3.712;2024-03-02T13:35:49;10.50;99.90
23371;DHT22;11858;51.056;3.712;2024-03-02T13:38:19;10.60;99.90
23371;DHT22;11858;51.056;3.712;2024-03-02T13:40:45;10.40;99.90
23371;DHT22;11858;51.056;3.712;2024-03-02T13:43:11;10.40;99.90
23371;DHT22;11858;51.056;3.712;2024-03-02T13:45:38;10.60;99.90
23371;DHT22;11858;51.056;3.712;2024-03-02T13:48:04;10.50;99.90
23371;DHT22;11858;51.056;3.712;2024-03-02T13:50:30;10.50;99.90
23371;DHT22;11858;51.056;3.712;2024-03-02T13:52:56;10.60;99.90
23371;DHT22;11858;51.056;3.712;2024-03-02T13:55:22;10.80;99.90
23371;DHT22;11858;51.056;3.712;2024-03-02T13:57:48;10.80;99.90
23371;DHT22;11858;51.056;3.712;2024-03-02T14:00:16;10.70;99.90
23371;DHT22;11858;51.056;3.712;2024-03-02T14:02:43;10.90;99.90
23371;DHT22;11858;51.056;3.712;2024-03-02T14:05:09;10.90;99.90
23371;DHT22;11858;51.056;3.712;2024-03-02T14:07:37;10.90;99.90
23371;DHT22;11858;51.056;3.712;2024-03-02T14:10:04;10.80;99.90
23371;DHT22;11858;51.056;3.712;2024-03-02T14:12:30;10.70;99.90
23371;DHT22;11858;51.056;3.712;2024-03-02T14:14:56;10.90;99.90
23371;DHT22;11858;51.056;3.712;2024-03-02T14:17:24;11.00;99.90
23371;DHT22;11858;51.056;3.712;2024-03-02T14:19:50;11.00;99.90
23371;DHT22;11858;51.056;3.712;2024-03-02T14:22:17;11.00;99.90
23371;DHT22;11858;51.056;3.712;2024-03-02T14:24:43;11.00;99.90
23371;DHT22;11858;51.056;3.712;2024-03-02T14:27:09;11.00;99.90
23371;DHT22;11858;51.056;3.712;2024-03-02T14:29:35;10.90;99.90
23371;DHT22;11858;51.056;3.712;2024-03-02T14:32:03;10.90;99.90
23371;DHT22;11858;51.056;3.712;2024-03-02T14:34:29;10.90;99.90
23371;DHT22;11858;51.056;3.712;2024-03-02T14:36:55;11.00;99.90
23371;DHT22;11858;51.056;3.712;2024-03-02T14:39:21;11.10;99.90
23371;DHT22;11858;51.056;3.712;2024-03-02T14:41:47;11.10;99.90
23371;DHT22;11858;51.056;3.712;2024-03-02T14:44:14;11.00;99.90
23371;DHT22;11858;51.056;3.712;2024-03-02T14:46:40;10.90;99.90
23371;DHT22;11858;51.056;3.712;2024-03-02T14:49:07;10.70;99.90
23371;DHT22;11858;51.056;3.712;2024-03-02T14:51:33;10.80;99.90
23371;DHT22;11858;51.056;3.712;2024-03-02T14:53:58;10.80;99.90
23371;DHT22;11858;51.056;3.712;2024-03-02T14:56:24;10.80;99.90
23371;DHT22;11858;51.056;3.712;2024-03-02T14:58:50;10.90;99.90
23371;DHT22;11858;51.056;3.712;2024-03-02T15:01:16;10.90;99.90
23371;DHT22;11858;51.056;3.712;2024-03-02T15:03:43;11.00;99.90
23371;DHT22;11858;51.056;3.712;2024-03-02T15:06:09;11.10;99.90
23371;DHT22;11858;51.056;3.712;2024-03-02T15:08:35;11.40;99.90
23371;DHT22;11858;51.056;3.712;2024-03-02T15:11:01;11.40;99.90
23371;DHT22;11858;51.056;3.712;2024-03-02T15:13:29;11.50;99.90
23371;DHT22;11858;51.056;3.712;2024-03-02T15:15:55;11.40;99.90
23371;DHT22;11858;51.056;3.712;2024-03-02T15:18:21;11.40;99.90
23371;DHT22;11858;51.056;3.712;2024-03-02T15:20:47;11.30;99.90
23371;DHT22;11858;51.056;3.712;2024-03-02T15:23:12;11.20;99.90
23371;DHT22;11858;51.056;3.712;2024-03-02T15:25:39;11.20;99.90
23371;DHT22;11858;51.056;3.712;2024-03-02T15:28:05;11.20;99.90
23371;DHT22;11858;51.056;3.712;2024-03-02T15:30:30;11.20;99.90
23371;DHT22;11858;51.056;3.712;2024-03-02T15:32:56;11.10;99.90
23371;DHT22;11858;51.056;3.712;2024-03-02T15:35:22;11.20;99.90
23371;DHT22;11858;51.056;3.712;2024-03-02T15:37:47;11.30;99.90